Time;durP1;ratioP1;P1;durP2;ratioP2;P2;SDS_P1;SDS_P2;PMS_P1;PMS_P2;Temp;Humidity;BMP_temperature;BMP_pressure;BME280_temperature;BME280_humidity;BME280_pressure;Samples;Min_cycle;Max_cycle;Signal;HPM_P1;HPM_P2
2024/04/20 00:00:27;;;;;;;7.93;5.55;;;;;;;8.60;73.71;92138.88;6319418;22;20452;-72
2024/04/20 00:02:53;;;;;;;6.78;4.22;;;;;;;8.64;73.66;92128.97;6318969;22;20407;-72
2024/04/20 00:05:19;;;;;;;10.05;5.85;;;;;;;8.66;73.34;92158.44;6319095;22;20024;-71
2024/04/20 00:07:48;;;;;;;8.93;4.22;;;;;;;8.71;74.13;92159.56;6319249;22;19996;-72
2024/04/20 00:10:15;;;;;;;8.82;3.92;;;;;;;8.72;74.15;92140.63;6318593;22;20312;-72
2024/04/20 00:12:40;;;;;;;;;;;;;;;8.65;74.94;92148.44;6320014;22;20014;-72
2024/04/20 00:15:06;;;;;;;6.97;3.67;;;;;;;8.13;74.87;92091.78;6319602;22;20314;-72
2024/04/20 00:17:32;;;;;;;12.13;6.55;;;;;;;8.13;75.47;92084.13;6319358;22;20003;-72
2024/04/20 00:19:58;;;;;;;18.67;7.47;;;;;;;8.19;75.59;92107.25;6318095;22;20305;-72
2024/04/20 00:22:24;;;;;;;13.65;5.25;;;;;;;8.16;75.79;92091.34;6319591;22;20003;-72
2024/04/20 00:24:50;;;;;;;13.25;5.03;;;;;;;8.42;77.49;92134.59;6317867;22;20015;-72
2024/04/20 00:27:15;;;;;;;15.32;7.20;;;;;;;8.33;77.51;92111.13;6319918;22;20289;-71
2024/04/20 00:29:41;;;;;;;12.30;5.63;;;;;;;8.15;77.40;92079.56;6319102;22;20393;-72
2024/04/20 00:32:06;;;;;;;8.48;4.70;;;;;;;8.55;76.62;92124.19;6319483;22;20454;-72
2024/04/20 00:34:32;;;;;;;11.10;5.00;;;;;;;8.46;76.03;92134.97;6319590;22;20036;-71
2024/04/20 00:36:57;;;;;;;11.10;4.20;;;;;;;8.32;77.15;92107.03;6319317;22;20004;-71
2024/04/20 00:39:23;;;;;;;8.20;4.47;;;;;;;8.22;75.75;92099.91;6318597;22;20468;-72
2024/04/20 00:41:49;;;;;;;9.27;3.83;;;;;;;8.29;76.77;92080.09;6318768;22;20011;-72
2024/04/20 00:44:15;;;;;;;;;;;;;;;8.72;75.74;92130.41;6319974;22;19996;-72
2024/04/20 00:46:41;;;;;;;8.55;3.33;;;;;;;8.38;75.98;92083.09;6319540;22;19923;-72
2024/04/20 00:49:09;;;;;;;8.57;4.15;;;;;;;8.42;76.51;92109.81;6319929;22;19996;-71
2024/04/20 00:51:35;;;;;;;7.53;3.63;;;;;;;7.89;77.87;92075.66;6320892;22;20024;-72
2024/04/20 00:54:02;;;;;;;12.80;4.72;;;;;;;7.88;78.67;92086.88;6319679;22;20497;-72
2024/04/20 00:56:31;;;;;;;14.05;5.00;;;;;;;8.05;79.98;92087.00;6319684;22;19996;-71
2024/04/20 00:58:57;;;;;;;6.40;4.10;;;;;;;7.91;81.71;92122.22;6320014;22;20012;-71
2024/04/20 01:01:26;;;;;;;10.43;4.85;;;;;;;8.13;82.91;92125.03;6319919;22;19996;-72
2024/04/20 01:03:53;;;;;;;6.90;3.97;;;;;;;8.12;82.11;92103.03;6318619;22;20304;-72
2024/04/20 01:06:18;;;;;;;5.22;4.03;;;;;;;8.06;79.16;92105.69;6320956;22;20003;-72
2024/04/20 01:08:44;;;;;;;9.25;4.72;;;;;;;7.66;80.60;92082.28;6320074;22;19996;-72
2024/04/20 01:11:11;;;;;;;6.78;4.07;;;;;;;7.97;81.92;92118.03;6321068;22;20019;-72
2024/04/20 01:13:36;;;;;;;6.93;4.00;;;;;;;7.96;79.21;92112.13;6320369;22;20723;-72
2024/04/20 01:16:02;;;;;;;11.40;4.72;;;;;;;8.10;81.72;92140.81;6320330;22;19996;-71
2024/04/20 01:18:28;;;;;;;6.95;4.05;;;;;;;7.70;79.97;92091.09;6319883;22;20007;-72
2024/04/20 01:20:54;;;;;;;6.70;4.18;;;;;;;7.83;81.21;92109.78;6318568;22;20012;-72
2024/04/20 01:23:20;;;;;;;;;;;;;;;7.87;80.02;92137.22;6320504;22;20006;-72
2024/04/20 01:25:51;;;;;;;6.25;3.05;;;;;;;7.11;82.88;92094.22;6320592;22;19924;-72
2024/04/20 01:28:17;;;;;;;5.88;3.58;;;;;;;6.82;85.57;92048.78;6319714;22;20401;-71
2024/04/20 01:30:43;;;;;;;6.65;3.63;;;;;;;7.22;84.66;92096.03;6319549;22;20000;-71
2024/04/20 01:33:09;;;;;;;7.90;3.65;;;;;;;6.98;85.74;92113.03;6320294;22;20063;-72
2024/04/20 01:35:37;;;;;;;5.03;3.25;;;;;;;6.17;86.07;92000.88;6319269;22;20419;-72
2024/04/20 01:38:03;;;;;;;5.60;3.22;;;;;;;7.02;86.49;92103.16;6320109;22;20019;-72
2024/04/20 01:40:29;;;;;;;5.68;3.08;;;;;;;6.30;84.85;91998.19;6320157;22;20056;-72
2024/04/20 01:42:54;;;;;;;5.10;3.38;;;;;;;7.01;85.38;92092.19;6319980;22;20006;-72
2024/04/20 01:45:20;;;;;;;6.85;3.70;;;;;;;7.11;86.17;92083.22;6319056;22;20019;-72
2024/04/20 01:47:45;;;;;;;6.45;3.83;;;;;;;7.50;86.32;92124.56;6319805;22;20082;-72
2024/04/20 01:50:12;;;;;;;8.65;4.10;;;;;;;7.69;88.19;92135.50;6319562;22;20404;-72
2024/04/20 01:52:37;;;;;;;5.75;4.13;;;;;;;7.54;87.50;92119.81;6320073;22;20020;-72
2024/04/20 01:55:03;;;;;;;6.35;3.88;;;;;;;7.40;90.27;92132.75;6320133;22;20000;-72
2024/04/20 01:57:30;;;;;;;7.78;3.95;;;;;;;6.94;90.86;92092.25;6319410;22;20014;-72
2024/04/20 01:59:56;;;;;;;7.90;4.25;;;;;;;6.95;90.57;92077.72;6319680;22;20076;-72
2024/04/20 02:02:21;;;;;;;8.20;4.60;;;;;;;7.14;89.64;92113.44;6319933;22;20015;-72
2024/04/20 02:04:47;;;;;;;5.70;3.83;;;;;;;6.85;89.57;92067.25;6319276;22;20398;-72
2024/04/20 02:07:13;;;;;;;4.47;2.90;;;;;;;6.98;89.65;92119.91;6319797;22;20007;-72
2024/04/20 02:09:39;;;;;;;7.60;4.78;;;;;;;6.78;91.69;92074.97;6319823;22;20004;-72
2024/04/20 02:12:04;;;;;;;6.80;3.75;;;;;;;6.94;92.26;92102.47;6319352;22;20010;-71
2024/04/20 02:14:30;;;;;;;9.35;4.80;;;;;;;6.91;92.00;92079.91;6319478;22;20423;-71
2024/04/20 02:16:55;;;;;;;5.88;4.13;;;;;;;6.97;91.71;92074.94;6320077;22;20003;-72
2024/04/20 02:19:21;;;;;;;6.20;3.80;;;;;;;7.29;91.17;92121.50;6318384;22;20373;-71
2024/04/20 02:21:46;;;;;;;5.85;4.53;;;;;;;7.13;91.36;92120.31;6319562;22;19996;-72
2024/04/20 02:24:12;;;;;;;5.80;3.97;;;;;;;6.40;93.99;92039.25;6319231;22;20000;-72
2024/04/20 02:26:37;;;;;;;9.48;3.38;;;;;;;6.94;94.71;92107.56;6318540;22;20052;-71
2024/04/20 02:29:03;;;;;;;5.65;3.95;;;;;;;6.23;93.27;92030.59;6319386;22;20067;-72
2024/04/20 02:31:32;;;;;;;4.95;3.53;;;;;;;6.46;90.72;92058.03;6319091;22;20000;-72
2024/04/20 02:33:58;;;;;;;6.03;4.20;;;;;;;6.99;91.32;92135.00;6319192;22;20007;-72
2024/04/20 02:36:27;;;;;;;5.63;3.90;;;;;;;6.84;89.99;92114.19;6319339;22;20011;-72
2024/04/20 02:38:53;;;;;;;4.82;3.65;;;;;;;6.71;87.07;92100.56;6319601;22;20004;-71
2024/04/20 02:41:19;;;;;;;4.95;3.50;;;;;;;6.92;86.53;92129.19;6319319;22;20063;-72
2024/04/20 02:43:45;;;;;;;4.88;3.75;;;;;;;6.99;86.02;92150.31;6319842;22;20425;-71
2024/04/20 02:46:11;;;;;;;5.82;3.58;;;;;;;6.74;84.61;92104.47;6319203;22;19999;-71
2024/04/20 02:48:37;;;;;;;;;;;;;;;6.99;84.65;92137.56;6319806;22;20004;-72
2024/04/20 02:51:03;;;;;;;4.97;3.40;;;;;;;6.85;86.15;92116.50;6320052;22;19930;-71
2024/04/20 02:53:29;;;;;;;6.13;4.05;;;;;;;6.66;86.43;92091.00;6318526;22;19999;-72
2024/04/20 02:55:54;;;;;;;4.68;3.53;;;;;;;6.80;88.04;92135.03;6319406;22;19991;-72
2024/04/20 02:58:19;;;;;;;6.57;4.65;;;;;;;6.72;88.85;92131.97;6318323;22;20401;-72
2024/04/20 03:00:56;;;;;;;5.13;4.25;;;;;;;6.64;88.52;92089.66;6318582;22;20071;-71
2024/04/20 03:03:22;;;;;;;5.10;4.03;;;;;;;6.56;91.89;92080.50;6276299;22;20297;-72
2024/04/20 03:05:48;;;;;;;5.80;4.68;;;;;;;6.76;94.61;92125.47;6318708;22;20000;-72
2024/04/20 03:08:14;;;;;;;7.00;5.00;;;;;;;6.66;95.63;92106.31;6319429;22;20000;-72
2024/04/20 03:10:39;;;;;;;7.97;5.03;;;;;;;6.67;96.93;92122.41;6318995;22;20003;-72
2024/04/20 03:13:04;;;;;;;7.68;4.60;;;;;;;6.53;96.29;92091.91;6319345;22;20083;-72
2024/04/20 03:15:30;;;;;;;5.78;4.60;;;;;;;6.72;97.98;92147.28;6319138;22;20083;-72
2024/04/20 03:17:55;;;;;;;5.88;4.63;;;;;;;6.22;96.02;92103.78;6318984;22;20010;-72
2024/04/20 03:20:21;;;;;;;5.70;4.38;;;;;;;6.34;96.53;92108.97;6318827;22;20444;-72
2024/04/20 03:22:46;;;;;;;5.95;4.75;;;;;;;6.56;97.12;92151.94;6318930;22;20865;-72
2024/04/20 03:25:12;;;;;;;5.90;4.90;;;;;;;6.63;96.67;92146.78;6319043;22;20399;-71
2024/04/20 03:27:39;;;;;;;6.35;4.32;;;;;;;6.29;97.14;92116.47;6319404;22;20007;-72
2024/04/20 03:30:05;;;;;;;7.68;5.53;;;;;;;5.73;94.92;92020.25;6318145;22;19996;-72
2024/04/20 03:32:30;;;;;;;7.00;5.68;;;;;;;6.25;94.43;92111.00;6318509;22;20024;-72
2024/04/20 03:34:56;;;;;;;7.93;5.28;;;;;;;6.44;93.74;92141.66;6318327;22;20314;-72
2024/04/20 03:37:22;;;;;;;6.85;5.47;;;;;;;6.59;93.33;92161.75;6319544;22;20000;-71
2024/04/20 03:39:48;;;;;;;6.10;4.90;;;;;;;6.49;93.26;92153.78;6319455;22;20067;-72
2024/04/20 03:42:13;;;;;;;6.45;4.90;;;;;;;6.35;93.63;92137.81;6318484;22;20410;-72
2024/04/20 03:44:39;;;;;;;5.90;4.70;;;;;;;6.34;93.95;92119.16;6318871;22;20018;-72
2024/04/20 03:47:04;;;;;;;5.90;4.80;;;;;;;6.52;95.75;92153.34;6318951;22;20305;-71
2024/04/20 03:49:30;;;;;;;7.25;5.05;;;;;;;6.40;96.28;92137.97;6318963;22;20614;-72
2024/04/20 03:51:56;;;;;;;6.65;5.15;;;;;;;6.51;95.61;92126.28;6318961;22;20075;-72
2024/04/20 03:54:21;;;;;;;6.78;4.93;;;;;;;6.56;93.53;92126.44;6319453;22;20384;-71
2024/04/20 03:56:48;;;;;;;6.50;5.05;;;;;;;6.67;92.98;92137.72;6318466;22;20076;-71
2024/04/20 03:59:14;;;;;;;5.63;4.35;;;;;;;6.88;92.60;92151.03;6318863;22;20008;-72
2024/04/20 04:01:39;;;;;;;7.32;4.40;;;;;;;7.13;91.95;92181.59;6319095;22;20004;-72
2024/04/20 04:04:05;;;;;;;6.78;4.53;;;;;;;6.95;90.79;92136.44;6321229;22;20044;-72
2024/04/20 04:06:31;;;;;;;6.15;4.03;;;;;;;7.02;91.04;92138.91;6320971;22;20467;-72
2024/04/20 04:08:56;;;;;;;6.50;5.18;;;;;;;7.41;90.78;92175.19;6321254;22;20015;-72
2024/04/20 04:11:22;;;;;;;7.20;4.68;;;;;;;7.41;90.29;92164.19;6321095;22;20012;-72
2024/04/20 04:13:47;;;;;;;9.13;5.03;;;;;;;7.37;88.80;92147.75;6321043;22;20011;-72
2024/04/20 04:16:13;;;;;;;7.05;4.00;;;;;;;7.70;89.19;92189.97;6320334;22;20024;-72
2024/04/20 04:18:38;;;;;;;6.03;4.18;;;;;;;7.55;87.18;92162.25;6320796;22;20044;-72
2024/04/20 04:21:05;;;;;;;6.38;3.90;;;;;;;7.55;86.47;92150.25;6317838;22;20438;-72
2024/04/20 04:23:30;;;;;;;7.32;4.30;;;;;;;7.82;87.02;92200.25;6320581;22;19995;-72
2024/04/20 04:25:56;;;;;;;5.55;3.85;;;;;;;7.82;88.36;92179.81;6320007;22;20003;-72
2024/04/20 04:28:21;;;;;;;6.20;4.25;;;;;;;7.59;89.37;92143.72;6320351;22;20006;-72
2024/04/20 04:30:47;;;;;;;10.70;4.40;;;;;;;7.92;89.64;92180.03;6319962;22;20080;-72
2024/04/20 04:33:12;;;;;;;7.70;4.38;;;;;;;8.01;89.27;92196.63;6319912;22;20000;-72
2024/04/20 04:35:38;;;;;;;7.97;4.80;;;;;;;8.04;88.62;92182.63;6319529;22;20410;-72
2024/04/20 04:38:04;;;;;;;6.68;4.63;;;;;;;7.86;87.96;92148.47;6320137;22;20000;-72
2024/04/20 04:40:29;;;;;;;13.32;8.05;;;;;;;8.09;87.79;92182.75;6319108;22;20381;-72
2024/04/20 04:42:55;;;;;;;18.38;11.80;;;;;;;7.91;88.60;92141.91;6320482;22;20109;-72
2024/04/20 04:45:20;;;;;;;8.52;6.07;;;;;;;8.13;83.99;92199.22;6320506;22;20390;-72
2024/04/20 04:47:45;;;;;;;14.18;8.13;;;;;;;8.02;85.45;92190.50;6320444;22;19996;-72
2024/04/20 04:50:11;;;;;;;12.48;7.20;;;;;;;7.55;84.67;92140.03;6320171;22;20348;-72
2024/04/20 04:52:36;;;;;;;8.38;4.63;;;;;;;7.73;82.87;92181.88;6319853;22;20004;-72
2024/04/20 04:55:02;;;;;;;6.82;5.43;;;;;;;7.81;84.29;92173.09;6320916;22;20000;-72
2024/04/20 04:57:28;;;;;;;15.43;5.72;;;;;;;7.84;85.79;92178.59;6318477;22;19996;-72
2024/04/20 04:59:53;;;;;;;8.90;5.30;;;;;;;7.97;87.56;92180.16;6314537;22;20080;-72
2024/04/20 05:02:19;;;;;;;9.38;6.18;;;;;;;8.08;88.47;92180.41;6316424;22;19996;-72
2024/04/20 05:04:44;;;;;;;8.82;6.03;;;;;;;7.95;88.24;92151.47;6315791;22;20011;-72
2024/04/20 05:07:10;;;;;;;7.50;5.43;;;;;;;7.73;84.06;92154.53;6320093;22;20380;-72
2024/04/20 05:09:38;;;;;;;7.20;4.95;;;;;;;7.94;84.24;92201.06;6319465;22;20006;-72
2024/04/20 05:12:05;;;;;;;9.13;6.15;;;;;;;7.39;84.02;92140.63;6319907;22;20309;-72
2024/04/20 05:14:31;;;;;;;10.73;6.32;;;;;;;7.60;81.58;92180.28;6319211;22;20330;-72
2024/04/20 05:16:56;;;;;;;6.55;4.97;;;;;;;7.49;81.15;92192.78;6319784;22;20006;-72
2024/04/20 05:19:22;;;;;;;7.03;5.38;;;;;;;7.75;83.97;92188.34;6319288;22;20012;-72
2024/04/20 05:21:47;;;;;;;8.57;6.57;;;;;;;7.45;83.39;92158.44;6320670;22;20080;-72
2024/04/20 05:24:13;;;;;;;9.00;6.35;;;;;;;7.54;82.48;92207.47;6320607;22;20011;-72
2024/04/20 05:26:38;;;;;;;8.70;6.38;;;;;;;7.61;82.51;92194.63;6320556;22;20019;-72
2024/04/20 05:29:04;;;;;;;7.35;5.38;;;;;;;6.86;83.54;92153.03;6319571;22;20011;-72
2024/04/20 05:31:29;;;;;;;7.75;5.55;;;;;;;7.22;83.99;92192.31;6319148;22;20003;-72
2024/04/20 05:33:54;;;;;;;6.88;5.70;;;;;;;6.90;82.30;92131.19;6319397;22;20024;-72
2024/04/20 05:36:20;;;;;;;6.13;4.82;;;;;;;7.30;83.45;92183.56;6320642;22;20000;-72
2024/04/20 05:38:46;;;;;;;7.15;5.65;;;;;;;7.09;84.23;92142.19;6320671;22;19999;-72
2024/04/20 05:41:11;;;;;;;7.07;5.43;;;;;;;7.52;83.20;92178.00;6319589;22;20492;-72
2024/04/20 05:43:37;;;;;;;7.57;5.85;;;;;;;7.59;83.47;92174.38;6319176;22;20000;-72
2024/04/20 05:46:03;;;;;;;7.30;5.60;;;;;;;7.64;83.58;92168.59;6319401;22;19996;-72
2024/04/20 05:48:29;;;;;;;8.07;5.35;;;;;;;7.52;82.89;92147.34;6319472;22;20290;-72
2024/04/20 05:50:54;;;;;;;8.05;5.38;;;;;;;7.67;82.83;92131.59;6319293;22;21222;-72
2024/04/20 05:53:20;;;;;;;8.65;5.30;;;;;;;7.97;80.02;92172.47;6319434;22;20075;-72
2024/04/20 05:55:46;;;;;;;6.70;4.88;;;;;;;7.92;80.38;92167.25;6316166;22;20416;-72
2024/04/20 05:58:12;;;;;;;7.00;4.80;;;;;;;7.64;79.35;92126.94;6315471;22;20281;-72
2024/04/20 06:00:38;;;;;;;6.22;4.63;;;;;;;8.20;79.38;92175.31;6316319;22;20000;-72
2024/04/20 06:03:03;;;;;;;7.38;5.20;;;;;;;7.77;79.02;92096.06;6318116;22;20035;-72
2024/04/20 06:05:29;;;;;;;7.57;5.47;;;;;;;8.47;78.51;92185.91;6316563;22;20000;-72
2024/04/20 06:07:54;;;;;;;9.40;5.78;;;;;;;8.15;78.44;92152.97;6318380;22;20004;-72
2024/04/20 06:10:20;;;;;;;9.02;4.95;;;;;;;8.22;79.00;92156.19;6319168;22;20298;-72
2024/04/20 06:12:45;;;;;;;8.25;5.57;;;;;;;8.35;78.64;92175.69;6314621;22;20044;-72
2024/04/20 06:15:11;;;;;;;9.13;6.15;;;;;;;8.32;79.59;92163.31;6318564;22;20067;-72
2024/04/20 06:17:36;;;;;;;8.02;5.47;;;;;;;8.79;78.93;92162.56;6318988;22;20004;-73
2024/04/20 06:20:03;;;;;;;7.28;4.63;;;;;;;9.03;77.21;92149.72;6319590;22;20314;-72
2024/04/20 06:22:28;;;;;;;6.93;4.78;;;;;;;9.16;74.65;92153.81;6319183;22;20011;-72
2024/04/20 06:24:54;;;;;;;5.75;4.07;;;;;;;9.55;73.99;92198.63;6318879;22;20484;-72
2024/04/20 06:27:20;;;;;;;6.13;4.45;;;;;;;9.95;72.79;92210.63;6319001;22;20417;-72
2024/04/20 06:29:46;;;;;;;6.68;4.40;;;;;;;10.02;71.89;92201.00;6318829;22;20429;-72
2024/04/20 06:32:11;;;;;;;5.45;4.25;;;;;;;10.11;69.82;92167.25;6318371;22;19999;-72
2024/04/20 06:34:37;;;;;;;5.57;3.75;;;;;;;10.49;69.02;92193.28;6315388;22;20011;-73
2024/04/20 06:37:02;;;;;;;5.65;3.60;;;;;;;11.02;70.17;92204.03;6316948;22;20007;-73
2024/04/20 06:39:28;;;;;;;5.65;3.47;;;;;;;10.96;67.70;92167.22;6319491;22;20000;-72
2024/04/20 06:41:54;;;;;;;5.45;4.00;;;;;;;11.06;67.06;92219.78;6318952;22;20095;-72
2024/04/20 06:44:20;;;;;;;8.60;4.22;;;;;;;11.13;68.07;92168.97;6319138;22;20000;-72
2024/04/20 06:46:46;;;;;;;4.10;3.03;;;;;;;10.92;65.30;92161.00;6319244;22;19996;-72
2024/04/20 06:49:13;;;;;;;4.88;3.67;;;;;;;11.77;67.89;92195.91;6317984;22;20012;-72
2024/04/20 06:51:38;;;;;;;6.28;3.63;;;;;;;12.11;64.69;92196.75;6318394;22;20000;-72
2024/04/20 06:54:04;;;;;;;4.63;3.20;;;;;;;12.77;65.01;92187.25;6319290;22;20036;-72
2024/04/20 06:56:29;;;;;;;8.63;3.90;;;;;;;11.89;61.67;92169.25;6317729;22;20011;-72
2024/04/20 06:58:55;;;;;;;6.15;3.70;;;;;;;12.56;63.10;92194.81;6318462;22;20011;-72
2024/04/20 07:01:21;;;;;;;4.03;2.72;;;;;;;12.43;60.81;92217.41;6317809;22;19999;-72
2024/04/20 07:03:46;;;;;;;3.97;2.65;;;;;;;12.20;62.37;92205.59;6316033;22;20398;-72
2024/04/20 07:06:12;;;;;;;4.25;2.95;;;;;;;12.67;60.41;92182.78;6317349;22;20004;-73
2024/04/20 07:08:37;;;;;;;7.65;3.70;;;;;;;13.02;60.55;92209.81;6318315;22;20320;-73
2024/04/20 07:11:04;;;;;;;6.05;4.40;;;;;;;13.33;60.40;92175.66;6315862;22;20381;-73
2024/04/20 07:13:35;;;;;;;10.23;8.70;;;;;;;12.26;59.13;92178.88;6317452;22;19999;-73
2024/04/20 07:16:01;;;;;;;5.22;3.65;;;;;;;12.64;59.87;92202.06;6318829;22;20287;-73
2024/04/20 07:18:27;;;;;;;5.13;4.20;;;;;;;12.10;60.84;92224.31;6318312;22;20003;-74
2024/04/20 07:20:54;;;;;;;3.63;2.72;;;;;;;11.67;62.08;92187.31;6317922;22;20691;-73
2024/04/20 07:23:19;;;;;;;5.43;3.38;;;;;;;11.96;61.71;92194.81;6315375;22;19996;-74
2024/04/20 07:25:45;;;;;;;3.75;2.85;;;;;;;12.40;60.86;92227.38;6318275;22;20401;-73
2024/04/20 07:28:10;;;;;;;5.18;3.15;;;;;;;12.69;62.08;92227.13;6317357;22;19996;-73
2024/04/20 07:30:36;;;;;;;3.92;3.03;;;;;;;12.54;59.57;92155.63;6316241;22;19996;-73
2024/04/20 07:33:01;;;;;;;4.65;2.80;;;;;;;12.94;59.13;92182.69;6318501;22;20351;-73
2024/04/20 07:35:27;;;;;;;4.15;3.00;;;;;;;13.33;59.38;92209.97;6315109;22;20771;-73
2024/04/20 07:37:52;;;;;;;4.65;3.30;;;;;;;13.33;56.30;92209.97;6316826;22;20308;-73
2024/04/20 07:40:18;;;;;;;4.20;2.60;;;;;;;13.48;56.21;92242.81;6320193;22;20012;-73
2024/04/20 07:42:43;;;;;;;6.03;3.05;;;;;;;13.75;57.68;92228.22;6320059;22;20294;-73
2024/04/20 07:45:09;;;;;;;4.75;3.13;;;;;;;13.88;58.57;92212.25;6318942;22;20014;-73
2024/04/20 07:47:35;;;;;;;6.60;3.03;;;;;;;13.96;56.09;92203.22;6319416;22;20334;-73
2024/04/20 07:50:00;;;;;;;5.93;3.22;;;;;;;14.48;56.29;92223.94;6275143;22;20031;-74
2024/04/20 07:52:26;;;;;;;5.45;3.17;;;;;;;14.70;56.97;92212.59;6319489;22;20008;-74
2024/04/20 07:54:51;;;;;;;4.95;3.45;;;;;;;14.59;53.80;92195.53;6318865;22;20099;-74
2024/04/20 07:57:17;;;;;;;4.90;3.35;;;;;;;14.69;55.39;92198.13;6319732;22;20028;-75
2024/04/20 07:59:45;;;;;;;5.15;3.53;;;;;;;14.90;56.57;92204.06;6319256;22;20308;-74
2024/04/20 08:02:11;;;;;;;5.53;3.42;;;;;;;14.37;54.37;92199.94;6318140;22;20328;-75
2024/04/20 08:04:36;;;;;;;;;;;;;;;13.90;54.11;92235.22;6316529;22;20012;-75
2024/04/20 08:07:02;;;;;;;5.45;2.88;;;;;;;14.01;56.78;92171.47;6319903;22;19931;-74
2024/04/20 08:09:27;;;;;;;4.43;2.92;;;;;;;13.85;54.70;92235.22;6320660;22;20096;-74
2024/04/20 08:11:53;;;;;;;6.00;3.92;;;;;;;13.45;55.78;92234.78;6320081;22;20301;-74
2024/04/20 08:14:18;;;;;;;6.68;5.20;;;;;;;13.33;57.57;92233.16;6318840;22;20001;-74
2024/04/20 08:16:44;;;;;;;5.22;3.28;;;;;;;12.96;58.07;92141.97;6318409;22;20040;-75
2024/04/20 08:19:09;;;;;;;3.60;2.75;;;;;;;13.71;55.90;92224.59;6318490;22;20000;-74
2024/04/20 08:21:35;;;;;;;4.55;3.20;;;;;;;12.47;56.83;92155.06;6316123;22;20003;-74
2024/04/20 08:24:00;;;;;;;4.68;3.53;;;;;;;13.03;57.47;92229.41;6316684;22;20033;-74
2024/04/20 08:26:26;;;;;;;4.93;2.78;;;;;;;13.45;57.57;92238.13;6317478;22;20004;-74
2024/04/20 08:28:52;;;;;;;5.07;3.63;;;;;;;12.82;56.25;92202.72;6319690;22;20075;-74
2024/04/20 08:31:18;;;;;;;3.58;2.70;;;;;;;13.25;56.78;92240.59;6320344;22;20318;-74
2024/04/20 08:33:43;;;;;;;6.13;3.38;;;;;;;12.58;58.37;92166.25;6320045;22;20008;-74
2024/04/20 08:36:09;;;;;;;5.07;3.10;;;;;;;12.22;59.89;92228.53;6319822;22;19991;-74
2024/04/20 08:38:34;;;;;;;5.85;3.85;;;;;;;12.32;60.81;92217.53;6319614;22;20067;-74
2024/04/20 08:41:06;;;;;;;7.38;4.63;;;;;;;12.30;60.32;92156.00;6320501;22;20011;-74
2024/04/20 08:43:32;;;;;;;5.60;3.42;;;;;;;13.02;58.59;92234.81;6318749;22;20401;-74
2024/04/20 08:46:04;;;;;;;5.07;3.40;;;;;;;13.21;59.46;92248.84;6319278;22;19996;-74
2024/04/20 08:48:31;;;;;;;6.97;5.18;;;;;;;12.77;58.47;92208.63;6319906;22;20946;-74
2024/04/20 08:51:02;;;;;;;7.22;4.15;;;;;;;13.23;58.21;92215.06;6318049;22;20007;-74
2024/04/20 08:53:31;;;;;;;4.30;3.33;;;;;;;12.68;57.75;92202.34;6319682;22;20007;-74
2024/04/20 08:55:57;;;;;;;3.83;3.03;;;;;;;12.72;58.11;92243.88;6319274;22;20777;-74
2024/04/20 08:58:22;;;;;;;8.25;5.05;;;;;;;13.02;58.30;92245.13;6319229;22;20000;-74
2024/04/20 09:00:51;;;;;;;3.85;2.90;;;;;;;12.84;56.00;92241.91;6320106;22;20071;-74
2024/04/20 09:03:17;;;;;;;5.22;3.30;;;;;;;13.02;58.38;92217.53;6319501;22;20004;-74
2024/04/20 09:05:43;;;;;;;4.85;3.13;;;;;;;13.10;56.80;92231.75;6319814;22;20454;-74
2024/04/20 09:08:10;;;;;;;4.70;3.22;;;;;;;12.91;57.58;92215.94;6319708;22;19996;-74
2024/04/20 09:10:35;;;;;;;3.97;3.00;;;;;;;12.21;57.64;92212.31;6320518;22;20008;-74
2024/04/20 09:13:01;;;;;;;4.10;2.72;;;;;;;12.42;57.66;92238.25;6319472;22;20008;-74
2024/04/20 09:15:30;;;;;;;4.38;2.80;;;;;;;12.68;57.15;92257.25;6320018;22;20004;-74
2024/04/20 09:17:56;;;;;;;4.57;3.50;;;;;;;11.92;57.35;92150.75;6319281;22;20340;-74
2024/04/20 09:20:22;;;;;;;;;;;;;;;12.75;57.88;92249.31;6319715;22;20000;-74
2024/04/20 09:22:47;;;;;;;3.67;2.88;;;;;;;12.74;58.75;92227.16;6320415;22;19931;-74
2024/04/20 09:25:18;;;;;;;4.50;3.22;;;;;;;12.84;58.81;92239.34;6319391;22;19996;-74
2024/04/20 09:27:49;;;;;;;5.63;3.58;;;;;;;12.80;57.36;92231.31;6318484;22;19988;-74
2024/04/20 09:30:15;;;;;;;4.93;3.15;;;;;;;12.24;57.45;92200.75;6316539;22;20635;-74
2024/04/20 09:32:43;;;;;;;4.38;2.90;;;;;;;12.63;59.17;92241.75;6314215;22;20068;-74
2024/04/20 09:35:09;;;;;;;6.20;3.40;;;;;;;13.07;60.04;92227.88;6316294;22;19999;-74
2024/04/20 09:37:34;;;;;;;5.53;3.67;;;;;;;13.21;58.88;92211.97;6316587;22;20010;-74
2024/04/20 09:40:00;;;;;;;4.60;2.90;;;;;;;13.43;57.26;92203.31;6315856;22;20004;-74
2024/04/20 09:42:29;;;;;;;5.25;2.97;;;;;;;13.89;54.52;92231.88;6315363;22;20445;-74
2024/04/20 09:44:55;;;;;;;8.27;4.60;;;;;;;13.51;54.90;92209.81;6314891;22;20102;-74
2024/04/20 09:47:24;;;;;;;8.20;4.60;;;;;;;13.62;55.40;92206.25;6317641;22;20053;-74
2024/04/20 09:49:51;;;;;;;4.75;2.95;;;;;;;14.12;55.09;92254.91;6317746;22;20472;-74
2024/04/20 09:52:42;;;;;;;11.80;6.03;;;;;;;14.12;54.71;92244.59;6317991;22;20000;-74
2024/04/20 09:55:27;;;;;;;5.50;3.53;;;;;;;14.46;54.38;92214.91;6316007;22;20004;-74
2024/04/20 09:57:55;;;;;;;5.32;3.47;;;;;;;14.06;50.72;92175.88;6317685;22;19995;-74
2024/04/20 10:00:20;;;;;;;5.30;2.90;;;;;;;14.69;50.40;92211.03;6318111;22;20002;-74
2024/04/20 10:02:47;;;;;;;5.70;2.80;;;;;;;15.12;51.83;92233.25;6319484;22;20262;-74
2024/04/20 10:05:15;;;;;;;5.00;2.85;;;;;;;15.35;52.08;92209.41;6316610;22;20324;-75
2024/04/20 10:07:43;;;;;;;3.65;2.38;;;;;;;15.87;50.70;92242.06;6319166;22;20003;-75
2024/04/20 10:10:10;;;;;;;4.63;2.30;;;;;;;15.56;49.97;92211.91;6319613;22;20010;-74
2024/04/20 10:12:36;;;;;;;4.65;3.03;;;;;;;15.77;50.87;92228.16;6320492;22;20421;-74
2024/04/20 10:15:02;;;;;;;3.80;2.65;;;;;;;15.94;50.60;92231.44;6319701;22;20000;-74
2024/04/20 10:17:28;;;;;;;6.68;2.88;;;;;;;15.72;48.01;92229.97;6319292;22;19996;-74
2024/04/20 10:19:56;;;;;;;3.47;2.55;;;;;;;15.18;47.76;92203.75;6319363;22;20063;-74
2024/04/20 10:22:22;;;;;;;5.22;2.80;;;;;;;15.42;46.74;92188.41;6319368;22;20028;-74
2024/04/20 10:24:55;;;;;;;4.43;2.42;;;;;;;15.83;48.90;92236.66;6318747;22;20094;-75
2024/04/20 10:27:24;;;;;;;3.45;2.67;;;;;;;14.64;47.70;92190.38;6319489;22;19996;-74
2024/04/20 10:29:50;;;;;;;3.90;2.60;;;;;;;15.03;49.39;92220.06;6316732;22;20003;-74
2024/04/20 10:32:22;;;;;;;3.60;2.50;;;;;;;15.25;48.59;92187.94;6313166;22;20006;-74
2024/04/20 10:34:48;;;;;;;3.50;2.47;;;;;;;15.52;47.19;92223.06;6315912;22;20040;-74
2024/04/20 10:37:23;;;;;;;6.97;3.08;;;;;;;15.71;50.35;92221.44;6315523;22;20000;-74
2024/04/20 10:39:49;;;;;;;5.70;3.22;;;;;;;15.74;50.68;92189.81;6314996;22;20003;-74
2024/04/20 10:42:14;;;;;;;10.77;3.78;;;;;;;16.17;50.90;92165.28;6314702;22;20018;-74
2024/04/20 10:44:40;;;;;;;4.70;2.58;;;;;;;16.55;47.02;92201.00;6314901;22;20079;-74
2024/04/20 10:47:06;;;;;;;4.55;3.00;;;;;;;15.65;47.27;92199.22;6316148;22;20354;-74
2024/04/20 10:49:31;;;;;;;;;;;;;;;15.90;47.50;92221.63;6319376;22;20011;-74
2024/04/20 10:51:58;;;;;;;5.15;2.80;;;;;;;15.99;49.08;92177.03;6318282;22;20322;-74
2024/04/20 10:54:24;;;;;;;7.38;3.70;;;;;;;16.15;47.35;92175.91;6318276;22;20031;-74
2024/04/20 10:56:53;;;;;;;7.70;5.00;;;;;;;15.04;47.94;92180.25;6316737;22;20039;-74
2024/04/20 10:59:20;;;;;;;5.25;3.63;;;;;;;14.59;49.91;92170.47;6316757;22;20111;-74
2024/04/20 11:01:45;;;;;;;;;;;;;;;14.21;50.98;92217.22;6315590;22;20000;-74
2024/04/20 11:04:11;;;;;;;7.85;4.25;;;;;;;13.16;54.74;92158.56;6315177;22;19931;-73
2024/04/20 11:06:36;;;;;;;7.10;4.60;;;;;;;13.21;53.42;92162.97;6318181;22;20317;-74
2024/04/20 11:09:03;;;;;;;8.02;5.03;;;;;;;13.74;52.49;92204.22;6319631;22;20003;-74
2024/04/20 11:11:28;;;;;;;5.50;4.20;;;;;;;13.44;53.83;92174.69;6318129;22;20008;-74
2024/04/20 11:14:00;;;;;;;7.07;4.53;;;;;;;13.17;54.78;92160.13;6316253;22;20022;-74
2024/04/20 11:16:27;;;;;;;6.40;3.85;;;;;;;13.04;55.45;92156.19;6315613;22;20082;-74
2024/04/20 11:18:52;;;;;;;5.20;3.72;;;;;;;13.39;57.40;92158.41;6315014;22;20004;-74
2024/04/20 11:21:18;;;;;;;7.18;4.53;;;;;;;14.14;56.62;92193.44;6315229;22;20040;-74
2024/04/20 11:23:44;;;;;;;5.85;4.03;;;;;;;14.23;51.94;92198.88;6314784;22;20000;-74
2024/04/20 11:26:10;;;;;;;5.35;3.70;;;;;;;13.49;52.80;92106.88;6314157;22;20008;-74
2024/04/20 11:28:37;;;;;;;5.75;3.80;;;;;;;13.80;53.49;92155.94;6315281;22;20071;-74
2024/04/20 11:31:02;;;;;;;7.38;5.13;;;;;;;14.01;51.69;92161.94;6314864;22;20004;-74
2024/04/20 11:33:29;;;;;;;6.63;4.40;;;;;;;13.84;51.75;92151.81;6315784;22;20072;-73